Time;durP1;ratioP1;P1;durP2;ratioP2;P2;SDS_P1;SDS_P2;PMS_P1;PMS_P2;Temp;Humidity;BMP_temperature;BMP_pressure;BME280_temperature;BME280_humidity;BME280_pressure;Samples;Min_cycle;Max_cycle;Signal;HPM_P1;HPM_P2
2024/01/13 00:00:12;;;;;;;32.80;24.67;;;;;;;-0.23;86.59;99261.81;5021611;28;20060;-71
2024/01/13 00:02:37;;;;;;;34.65;24.75;;;;;;;-0.22;86.22;99266.13;5002231;28;20481;-70
2024/01/13 00:05:03;;;;;;;30.33;23.85;;;;;;;-0.33;87.03;99237.25;5027224;28;20115;-71
2024/01/13 00:07:28;;;;;;;31.48;24.05;;;;;;;-0.25;86.00;99249.69;5015137;28;20029;-71
2024/01/13 00:09:53;;;;;;;32.53;24.67;;;;;;;-0.25;86.26;99250.53;5024955;28;20072;-71
2024/01/13 00:12:19;;;;;;;31.27;23.85;;;;;;;-0.17;86.16;99257.72;5029142;28;20048;-71
2024/01/13 00:14:44;;;;;;;30.73;23.60;;;;;;;-0.17;86.42;99269.16;4989042;28;20022;-71
2024/01/13 00:17:10;;;;;;;32.42;24.73;;;;;;;-0.18;86.27;99259.53;5027494;28;20057;-71
2024/01/13 00:19:35;;;;;;;32.10;24.55;;;;;;;-0.17;85.81;99263.88;5003948;28;20026;-71
2024/01/13 00:22:00;;;;;;;31.30;24.55;;;;;;;-0.13;86.61;99262.56;5027767;28;20448;-71
2024/01/13 00:24:26;;;;;;;34.70;25.58;;;;;;;-0.16;86.33;99256.72;5026069;28;20105;-71
2024/01/13 00:26:51;;;;;;;29.27;22.70;;;;;;;-0.23;86.41;99243.28;5028249;28;20041;-72
2024/01/13 00:29:17;;;;;;;31.67;24.25;;;;;;;-0.14;85.96;99258.25;5023568;28;20476;-72
2024/01/13 00:31:42;;;;;;;31.27;24.08;;;;;;;-0.22;85.97;99246.75;5021676;28;20049;-71
2024/01/13 00:34:07;;;;;;;32.58;24.65;;;;;;;-0.20;86.22;99252.72;5022471;28;20032;-72
2024/01/13 00:36:33;;;;;;;29.40;23.58;;;;;;;-0.18;86.05;99256.06;5025743;28;20096;-71
2024/01/13 00:38:58;;;;;;;30.60;23.60;;;;;;;-0.17;86.02;99252.44;5023721;28;20028;-71
2024/01/13 00:41:24;;;;;;;29.27;22.58;;;;;;;-0.18;85.83;99251.59;5024707;28;20432;-71
2024/01/13 00:43:49;;;;;;;29.33;23.38;;;;;;;-0.27;86.52;99241.91;5019718;28;20395;-71
2024/01/13 00:46:15;;;;;;;29.95;23.25;;;;;;;-0.27;86.87;99249.88;5023591;28;20041;-71
2024/01/13 00:48:40;;;;;;;31.83;24.52;;;;;;;-0.21;86.72;99243.16;5022945;28;20029;-71
2024/01/13 00:51:08;;;;;;;30.27;23.60;;;;;;;-0.23;86.53;99237.97;5015145;28;20104;-71
2024/01/13 00:53:34;;;;;;;30.30;23.65;;;;;;;-0.23;86.02;99227.41;5018274;28;20033;-71
2024/01/13 00:55:59;;;;;;;30.73;23.13;;;;;;;-0.13;86.08;99238.75;5010325;28;20037;-70
2024/01/13 00:58:25;;;;;;;30.42;23.58;;;;;;;-0.14;85.44;99241.56;5019362;28;20457;-71
2024/01/13 01:00:50;;;;;;;30.27;22.73;;;;;;;-0.14;86.56;99247.66;5027685;28;20120;-72
2024/01/13 01:03:15;;;;;;;32.58;23.70;;;;;;;-0.24;86.36;99220.47;5025460;28;20025;-72
2024/01/13 01:05:41;;;;;;;31.80;23.77;;;;;;;-0.24;86.28;99225.75;5026097;28;20041;-70
2024/01/13 01:08:06;;;;;;;32.88;24.83;;;;;;;-0.16;85.79;99244.34;5019426;28;20029;-71
2024/01/13 01:10:32;;;;;;;31.67;23.85;;;;;;;-0.12;85.79;99240.41;5020556;28;20091;-71
2024/01/13 01:12:57;;;;;;;31.00;23.48;;;;;;;-0.15;85.88;99234.59;5025951;28;20104;-71
2024/01/13 01:15:22;;;;;;;27.48;21.67;;;;;;;-0.11;86.05;99235.94;5023198;28;20037;-71
2024/01/13 01:17:48;;;;;;;31.85;24.42;;;;;;;-0.12;85.54;99229.00;5023598;28;20054;-71
2024/01/13 01:20:13;;;;;;;31.33;23.58;;;;;;;-0.07;85.94;99243.44;4998628;28;20095;-71
2024/01/13 01:22:38;;;;;;;29.38;23.60;;;;;;;-0.04;86.00;99237.00;5021546;28;20045;-71
2024/01/13 01:25:05;;;;;;;30.33;22.95;;;;;;;-0.12;86.29;99229.81;5030761;28;20429;-71
2024/01/13 01:27:31;;;;;;;32.63;24.27;;;;;;;-0.07;85.64;99230.19;5020124;28;20441;-71
2024/01/13 01:29:56;;;;;;;30.92;22.98;;;;;;;-0.05;85.70;99233.50;5010907;28;20068;-71
2024/01/13 01:32:21;;;;;;;32.13;24.40;;;;;;;-0.02;85.22;99235.03;5026198;28;20029;-71
2024/01/13 01:34:47;;;;;;;31.20;22.85;;;;;;;-0.04;86.22;99229.06;5027953;28;20044;-71
2024/01/13 01:37:12;;;;;;;31.55;24.25;;;;;;;-0.12;86.23;99224.50;5023349;28;20025;-71
2024/01/13 01:39:38;;;;;;;32.63;23.73;;;;;;;-0.11;86.33;99231.50;5019970;28;20033;-70
2024/01/13 01:42:03;;;;;;;31.60;24.25;;;;;;;-0.06;86.49;99223.09;5011763;28;20446;-70
2024/01/13 01:44:28;;;;;;;32.70;24.27;;;;;;;-0.05;86.29;99214.97;5010407;28;20054;-70
2024/01/13 01:46:56;;;;;;;33.97;25.63;;;;;;;-0.04;85.58;99224.59;5017551;28;20032;-70
2024/01/13 01:49:21;;;;;;;34.08;25.08;;;;;;;-0.13;85.21;99201.69;5010597;28;20038;-70
2024/01/13 01:51:47;;;;;;;33.28;25.63;;;;;;;-0.04;86.50;99219.31;5015443;28;20076;-70
2024/01/13 01:54:13;;;;;;;33.47;25.98;;;;;;;-0.13;86.10;99212.28;5008299;28;20045;-70
2024/01/13 01:56:38;;;;;;;32.97;25.63;;;;;;;-0.03;85.41;99218.34;5000412;28;20053;-71
2024/01/13 01:59:03;;;;;;;31.67;24.35;;;;;;;-0.14;85.87;99194.72;5012183;28;20489;-70
2024/01/13 02:01:32;;;;;;;32.05;24.45;;;;;;;-0.09;85.65;99202.19;5011468;28;20026;-70
2024/01/13 02:03:59;;;;;;;32.85;24.77;;;;;;;-0.01;85.90;99205.78;5017800;28;20045;-72
2024/01/13 02:06:24;;;;;;;34.75;25.42;;;;;;;-0.16;86.46;99183.47;5014558;28;20026;-71
2024/01/13 02:08:50;;;;;;;33.25;25.60;;;;;;;-0.02;85.77;99203.25;5008838;28;20040;-72
2024/01/13 02:11:16;;;;;;;34.90;25.13;;;;;;;-0.07;85.31;99185.19;5018121;28;20025;-71
2024/01/13 02:13:43;;;;;;;33.47;25.67;;;;;;;0.02;85.98;99182.63;5021874;28;20029;-71
2024/01/13 02:16:09;;;;;;;33.67;25.38;;;;;;;0.02;85.94;99179.97;5036704;28;20029;-71
2024/01/13 02:18:34;;;;;;;35.42;26.42;;;;;;;0.02;85.94;99179.97;5004724;28;20052;-72
2024/01/13 02:21:00;;;;;;;37.80;27.50;;;;;;;-0.03;85.86;99181.28;4999410;28;20029;-72
2024/01/13 02:23:25;;;;;;;36.92;27.02;;;;;;;-0.13;85.65;99158.50;5021375;28;20508;-73
2024/01/13 02:25:51;;;;;;;34.35;26.38;;;;;;;-0.03;85.08;99170.69;5023881;28;20706;-73
2024/01/13 02:28:16;;;;;;;36.95;27.10;;;;;;;-0.10;86.31;99164.34;5005538;28;20036;-72
2024/01/13 02:30:42;;;;;;;36.53;26.75;;;;;;;-0.03;85.51;99159.25;5022898;28;20520;-72
2024/01/13 02:33:07;;;;;;;38.47;27.50;;;;;;;-0.10;86.33;99156.41;5012565;28;20447;-72
2024/01/13 02:35:32;;;;;;;36.70;27.52;;;;;;;-0.07;86.28;99163.19;5019954;28;20018;-72
2024/01/13 02:37:58;;;;;;;36.05;28.20;;;;;;;-0.13;85.86;99148.75;5030490;28;20512;-72
2024/01/13 02:40:23;;;;;;;37.15;27.52;;;;;;;-0.07;85.56;99155.25;5023350;28;20033;-72
2024/01/13 02:42:48;;;;;;;38.80;28.45;;;;;;;-0.01;85.81;99146.69;5012255;28;20037;-72
2024/01/13 02:45:14;;;;;;;39.72;27.35;;;;;;;-0.10;86.08;99148.47;5026627;28;20559;-72
2024/01/13 02:47:43;;;;;;;38.25;28.67;;;;;;;-0.02;85.50;99148.50;5030342;28;20112;-72
2024/01/13 02:50:09;;;;;;;40.45;28.77;;;;;;;-0.14;85.60;99125.91;4991420;28;20038;-72
2024/01/13 02:52:34;;;;;;;41.00;28.83;;;;;;;-0.09;85.37;99128.91;5006383;28;20037;-71
2024/01/13 02:55:00;;;;;;;41.60;28.42;;;;;;;-0.06;85.50;99125.97;5009121;28;20474;-72
2024/01/13 02:57:26;;;;;;;41.10;29.67;;;;;;;-0.16;85.94;99119.09;5022035;28;20041;-71
2024/01/13 02:59:51;;;;;;;41.42;29.67;;;;;;;-0.12;86.27;99125.78;5022803;28;20512;-71
2024/01/13 03:02:17;;;;;;;44.83;30.42;;;;;;;-0.29;86.20;99105.44;5018092;28;20038;-71
2024/01/13 03:04:42;;;;;;;40.40;29.02;;;;;;;-0.22;86.10;99107.34;5006139;28;20029;-71
2024/01/13 03:07:08;;;;;;;47.03;31.38;;;;;;;-0.18;86.00;99123.72;5000599;28;20099;-71
2024/01/13 03:09:33;;;;;;;43.97;31.45;;;;;;;-0.20;86.44;99110.66;5025652;28;20440;-71
2024/01/13 03:11:58;;;;;;;46.45;32.42;;;;;;;-0.11;86.21;99120.31;5032495;28;20038;-69
2024/01/13 03:14:24;;;;;;;48.75;32.92;;;;;;;-0.10;86.55;99116.69;4998376;28;20018;-69
2024/01/13 03:16:49;;;;;;;44.05;32.03;;;;;;;-0.18;85.80;99100.75;5028060;28;20041;-73
2024/01/13 03:19:15;;;;;;;45.92;32.42;;;;;;;-0.13;86.52;99095.81;5026561;28;20029;-73
2024/01/13 03:21:41;;;;;;;44.90;31.40;;;;;;;-0.29;86.11;99071.03;5029149;28;20033;-71
2024/01/13 03:24:06;;;;;;;46.67;32.85;;;;;;;-0.19;86.97;99101.72;5018203;28;20028;-72
2024/01/13 03:26:31;;;;;;;46.90;32.08;;;;;;;-0.12;86.59;99102.75;5029397;28;20561;-72
2024/01/13 03:28:57;;;;;;;49.45;33.03;;;;;;;-0.38;85.85;99049.00;5022476;28;20698;-71
2024/01/13 03:31:22;;;;;;;48.53;33.72;;;;;;;-0.11;86.53;99093.00;5028246;28;20045;-71
2024/01/13 03:33:48;;;;;;;49.67;33.88;;;;;;;-0.11;86.12;99093.84;5022024;28;20026;-71
2024/01/13 03:36:13;;;;;;;48.60;33.45;;;;;;;-0.05;86.22;99089.75;5007321;28;20033;-72
2024/01/13 03:38:39;;;;;;;47.70;33.38;;;;;;;-0.28;86.86;99065.59;5026283;28;20112;-72
2024/01/13 03:41:04;;;;;;;46.45;32.97;;;;;;;-0.26;85.99;99063.66;5024537;28;20045;-72
2024/01/13 03:43:30;;;;;;;51.08;33.33;;;;;;;-0.09;86.45;99091.03;5020497;28;20077;-71
2024/01/13 03:45:55;;;;;;;51.38;33.85;;;;;;;-0.10;86.74;99084.94;5027319;28;20029;-69
2024/01/13 03:48:21;;;;;;;50.33;34.03;;;;;;;-0.16;86.81;99076.75;5021935;28;20029;-70
2024/01/13 03:50:46;;;;;;;53.63;35.90;;;;;;;-0.05;85.99;99087.09;5028672;28;20037;-70
2024/01/13 03:53:12;;;;;;;51.78;34.40;;;;;;;-0.07;86.55;99079.28;5024539;28;20053;-69
2024/01/13 03:55:37;;;;;;;53.70;34.88;;;;;;;-0.12;86.88;99072.84;5005687;28;20117;-70
2024/01/13 03:58:03;;;;;;;48.58;33.67;;;;;;;-0.14;86.68;99067.66;5022909;28;20037;-70
2024/01/13 04:00:29;;;;;;;50.78;34.40;;;;;;;0.01;86.35;99075.88;5044799;28;20449;-70
2024/01/13 04:02:54;;;;;;;50.70;34.05;;;;;;;0.01;85.84;99078.53;5024789;28;20057;-70
2024/01/13 04:05:20;;;;;;;50.10;34.55;;;;;;;-0.07;85.60;99063.41;5025913;28;20058;-70
2024/01/13 04:07:46;;;;;;;53.03;35.70;;;;;;;-0.14;86.14;99051.78;5021665;28;20033;-70
2024/01/13 04:10:11;;;;;;;52.03;33.85;;;;;;;0.03;85.51;99073.06;5020063;28;20202;-70
2024/01/13 04:12:39;;;;;;;52.72;34.72;;;;;;;-0.02;86.50;99071.72;5023238;28;20502;-71
2024/01/13 04:15:05;;;;;;;53.35;35.95;;;;;;;-0.06;85.73;99059.78;5010323;28;20029;-71
2024/01/13 04:17:30;;;;;;;54.33;36.22;;;;;;;-0.01;85.83;99073.41;5020594;28;20025;-72
2024/01/13 04:19:56;;;;;;;50.38;34.35;;;;;;;-0.06;86.11;99054.50;5021794;28;20085;-72
2024/01/13 04:22:21;;;;;;;54.55;37.22;;;;;;;-0.02;85.86;99060.28;5022797;28;20076;-72
2024/01/13 04:24:46;;;;;;;53.50;36.10;;;;;;;-0.04;85.60;99047.22;5011271;28;20040;-72
2024/01/13 04:27:12;;;;;;;56.10;35.88;;;;;;;0.05;85.41;99061.34;5022646;28;20026;-72
2024/01/13 04:29:37;;;;;;;54.47;35.53;;;;;;;-0.10;86.34;99042.56;5005679;28;20485;-70
2024/01/13 04:32:03;;;;;;;56.38;36.83;;;;;;;-0.01;86.42;99056.69;5023770;28;20055;-70
2024/01/13 04:34:28;;;;;;;52.13;36.30;;;;;;;-0.02;86.54;99060.28;5026622;28;20529;-70
2024/01/13 04:36:53;;;;;;;55.42;37.00;;;;;;;-0.20;85.75;99020.66;5025846;28;20474;-70
2024/01/13 04:39:19;;;;;;;55.22;36.20;;;;;;;-0.11;86.44;99032.97;5022648;28;20296;-70
2024/01/13 04:41:44;;;;;;;53.15;35.50;;;;;;;-0.09;85.78;99028.34;5021862;28;20503;-70
2024/01/13 04:44:10;;;;;;;57.50;36.60;;;;;;;0.02;85.66;99044.94;5026165;28;20449;-70
2024/01/13 04:46:35;;;;;;;52.90;34.85;;;;;;;0.00;86.45;99037.16;5028382;28;20030;-70
2024/01/13 04:49:01;;;;;;;57.75;36.97;;;;;;;0.02;85.51;99039.66;5004005;28;20061;-70
2024/01/13 04:51:26;;;;;;;58.92;36.45;;;;;;;-0.08;86.06;99024.72;5022947;28;20053;-70
2024/01/13 04:53:51;;;;;;;53.65;35.63;;;;;;;0.08;85.56;99031.91;5019032;28;20045;-70
2024/01/13 04:56:17;;;;;;;56.17;36.92;;;;;;;-0.02;85.95;99012.66;5023130;28;20025;-70
2024/01/13 04:58:42;;;;;;;57.63;36.95;;;;;;;0.01;86.00;99020.28;5009984;28;20041;-69
2024/01/13 05:01:07;;;;;;;56.67;36.33;;;;;;;0.05;85.59;99020.81;5005158;28;20033;-71
2024/01/13 05:03:34;;;;;;;53.35;35.38;;;;;;;0.10;85.82;99021.16;5001728;28;20061;-71
2024/01/13 05:06:00;;;;;;;57.92;36.85;;;;;;;0.07;85.43;99006.41;5013810;28;20030;-71
2024/01/13 05:08:25;;;;;;;59.53;37.58;;;;;;;0.04;85.27;99000.59;5019279;28;20044;-71
2024/01/13 05:10:51;;;;;;;58.70;36.85;;;;;;;0.11;86.22;99017.53;4996975;28;20057;-71
2024/01/13 05:13:16;;;;;;;63.58;37.65;;;;;;;-0.01;85.87;98999.28;5009518;28;20120;-72
2024/01/13 05:15:42;;;;;;;61.92;37.33;;;;;;;-0.08;85.50;98992.94;5018516;28;21424;-71
2024/01/13 05:18:08;;;;;;;63.67;39.47;;;;;;;0.00;86.29;99006.22;5012106;28;20034;-70
2024/01/13 05:20:34;;;;;;;59.50;37.42;;;;;;;-0.07;85.47;98991.13;5009576;28;20026;-71
2024/01/13 05:22:59;;;;;;;62.40;38.10;;;;;;;0.08;85.26;99012.53;5018582;28;20061;-71
2024/01/13 05:25:25;;;;;;;59.83;37.45;;;;;;;-0.04;85.73;98999.56;5024506;28;20096;-71
2024/01/13 05:27:50;;;;;;;61.45;38.05;;;;;;;0.02;86.39;99014.00;5028017;28;20037;-71
2024/01/13 05:30:16;;;;;;;60.70;37.60;;;;;;;-0.06;86.35;99011.31;5006066;28;20025;-71
2024/01/13 05:32:41;;;;;;;59.63;38.45;;;;;;;-0.02;86.52;99018.78;5026402;28;20375;-70
2024/01/13 05:35:07;;;;;;;60.53;37.47;;;;;;;-0.14;85.85;99012.09;5019988;28;20025;-71
2024/01/13 05:37:33;;;;;;;63.33;30.48;;;;;;;-0.17;86.25;99030.13;5024358;28;20565;-70
2024/01/13 05:39:58;;;;;;;57.35;36.20;;;;;;;-0.18;86.24;99017.84;5001928;28;20120;-71
2024/01/13 05:42:24;;;;;;;64.47;40.05;;;;;;;-0.11;86.49;99035.59;5022775;28;20036;-71
2024/01/13 05:44:49;;;;;;;59.70;37.42;;;;;;;-0.11;86.29;99035.59;5023068;28;20025;-71
2024/01/13 05:47:14;;;;;;;57.75;36.75;;;;;;;-0.20;86.46;99014.53;5042283;28;20037;-71
2024/01/13 05:49:40;;;;;;;61.38;37.47;;;;;;;-0.24;86.22;99003.44;5013692;28;20101;-71
2024/01/13 05:52:05;;;;;;;56.92;35.85;;;;;;;-0.25;86.44;99017.66;5022873;28;20033;-71
2024/01/13 05:54:31;;;;;;;56.05;36.05;;;;;;;-0.40;86.93;99002.50;5028708;28;20018;-72
2024/01/13 05:56:56;;;;;;;59.65;35.90;;;;;;;-0.24;87.07;99014.03;5017356;28;20053;-71
2024/01/13 05:59:22;;;;;;;60.05;36.60;;;;;;;-0.31;87.07;98997.13;5024485;28;20029;-71
2024/01/13 06:01:47;;;;;;;56.13;34.30;;;;;;;-0.21;86.70;99015.53;5003952;28;20103;-71
2024/01/13 06:04:13;;;;;;;57.20;35.38;;;;;;;-0.39;86.77;98972.41;5022644;28;20017;-71
2024/01/13 06:06:38;;;;;;;61.08;36.20;;;;;;;-0.18;86.91;99001.97;5002167;28;20033;-71
2024/01/13 06:09:03;;;;;;;69.88;47.95;;;;;;;-0.18;86.53;99001.97;5006237;28;20633;-71
2024/01/13 06:11:29;;;;;;;60.03;40.40;;;;;;;-0.21;86.74;98981.13;5019048;28;20048;-72
2024/01/13 06:13:55;;;;;;;60.80;40.13;;;;;;;-0.17;86.76;98982.47;5004115;28;20021;-71
2024/01/13 06:16:21;;;;;;;55.72;36.85;;;;;;;-0.10;85.87;98984.34;5011668;28;20116;-71
2024/01/13 06:18:46;;;;;;;52.58;35.05;;;;;;;-0.10;86.08;98968.47;5014410;28;20072;-71
2024/01/13 06:21:12;;;;;;;48.22;33.45;;;;;;;-0.14;86.49;98972.38;4993626;28;20057;-71
2024/01/13 06:23:37;;;;;;;44.75;29.25;;;;;;;-0.12;86.98;98972.25;5026209;28;20024;-72
2024/01/13 06:26:04;;;;;;;47.67;33.40;;;;;;;-0.29;85.95;98942.22;5014337;28;20038;-72
2024/01/13 06:28:30;;;;;;;46.30;32.22;;;;;;;-0.19;86.61;98953.50;4999395;28;20030;-73
2024/01/13 06:30:56;;;;;;;38.28;25.95;;;;;;;-0.19;86.82;98964.09;5025068;28;20065;-72
2024/01/13 06:33:21;;;;;;;47.60;33.97;;;;;;;-0.21;86.21;98955.47;4991339;28;20160;-72
2024/01/13 06:35:47;;;;;;;39.35;27.38;;;;;;;-0.29;85.78;98946.69;5014890;28;20038;-72
2024/01/13 06:38:12;;;;;;;43.03;30.38;;;;;;;-0.26;86.19;98941.91;5024936;28;20029;-73
2024/01/13 06:40:38;;;;;;;47.10;32.85;;;;;;;-0.23;86.40;98957.47;5015024;28;20103;-72
2024/01/13 06:43:03;;;;;;;50.63;31.85;;;;;;;-0.25;86.14;98943.56;5026935;28;20030;-72
2024/01/13 06:45:29;;;;;;;57.95;36.15;;;;;;;-0.29;85.62;98939.56;5010910;28;20481;-72
2024/01/13 06:47:54;;;;;;;53.13;35.90;;;;;;;-0.22;86.04;98939.75;5018364;28;20026;-72
2024/01/13 06:50:19;;;;;;;52.50;34.28;;;;;;;-0.11;85.67;98952.72;5025034;28;20037;-73
2024/01/13 06:52:45;;;;;;;45.53;29.25;;;;;;;-0.08;85.95;98950.59;5024138;28;20029;-71
2024/01/13 06:55:10;;;;;;;50.13;33.53;;;;;;;-0.04;85.34;98946.63;5023826;28;20036;-71
2024/01/13 06:57:36;;;;;;;52.65;33.63;;;;;;;-0.08;84.76;98934.72;5027256;28;20093;-71
2024/01/13 07:00:01;;;;;;;45.10;30.05;;;;;;;-0.13;85.14;98946.75;5020173;28;20044;-71
2024/01/13 07:02:27;;;;;;;39.50;26.70;;;;;;;-0.20;85.15;98943.91;5002315;28;20290;-71
2024/01/13 07:04:52;;;;;;;32.85;21.20;;;;;;;-0.15;86.00;98954.03;5026551;28;20037;-71
2024/01/13 07:07:17;;;;;;;29.48;19.85;;;;;;;-0.18;85.18;98944.59;5025356;28;20029;-71
2024/01/13 07:09:43;;;;;;;29.45;20.52;;;;;;;-0.24;84.88;98934.66;5018420;28;20057;-72
2024/01/13 07:12:09;;;;;;;26.15;19.02;;;;;;;-0.21;84.87;98949.38;5028794;28;20033;-71
2024/01/13 07:14:35;;;;;;;26.35;19.55;;;;;;;-0.14;84.16;98945.13;5023522;28;20042;-71
2024/01/13 07:17:00;;;;;;;24.80;16.90;;;;;;;-0.32;84.05;98937.22;5021794;28;20022;-71
2024/01/13 07:19:26;;;;;;;24.95;18.58;;;;;;;-0.24;83.56;98950.53;5028273;28;20057;-71
2024/01/13 07:21:51;;;;;;;25.35;17.10;;;;;;;-0.23;84.25;98956.63;5029538;28;20036;-71
2024/01/13 07:24:16;;;;;;;22.52;16.67;;;;;;;-0.26;84.25;98963.09;5019043;28;20088;-71
2024/01/13 07:26:44;;;;;;;19.42;15.10;;;;;;;-0.25;83.37;98946.19;5025425;28;20116;-72
2024/01/13 07:29:09;;;;;;;22.98;16.02;;;;;;;-0.32;82.88;98952.28;5009155;28;20034;-71
2024/01/13 07:31:34;;;;;;;20.55;14.65;;;;;;;-0.19;82.83;98958.78;5018668;28;20474;-71
2024/01/13 07:34:00;;;;;;;19.88;15.57;;;;;;;-0.31;83.01;98946.84;5028395;28;20034;-71
2024/01/13 07:36:25;;;;;;;16.85;12.95;;;;;;;-0.22;82.37;98953.00;5026890;28;20021;-72
2024/01/13 07:38:51;;;;;;;19.17;13.45;;;;;;;-0.27;83.01;98939.41;5027649;28;20045;-71
2024/01/13 07:41:17;;;;;;;18.05;13.00;;;;;;;-0.15;82.31;98954.88;5025882;28;20030;-71
2024/01/13 07:43:45;;;;;;;18.60;13.55;;;;;;;-0.11;82.21;98955.34;5016371;28;20474;-71
2024/01/13 07:46:12;;;;;;;21.17;15.68;;;;;;;-0.12;82.30;98951.88;5008096;28;20083;-72
2024/01/13 07:48:38;;;;;;;30.13;24.70;;;;;;;-0.21;82.05;98936.16;5005370;28;20453;-72
2024/01/13 07:51:04;;;;;;;25.90;20.88;;;;;;;-0.17;81.89;98930.38;5028050;28;20021;-71
2024/01/13 07:53:29;;;;;;;21.90;19.25;;;;;;;-0.18;82.95;98955.16;5036708;28;20113;-71
2024/01/13 07:55:54;;;;;;;21.25;17.52;;;;;;;-0.41;81.93;98902.94;5025108;28;20108;-72
2024/01/13 07:58:20;;;;;;;31.70;24.95;;;;;;;-0.14;82.79;98943.28;5000862;28;20048;-71
2024/01/13 08:00:45;;;;;;;25.70;20.60;;;;;;;-0.17;81.94;98935.66;5025613;28;20035;-72
2024/01/13 08:03:10;;;;;;;28.75;23.13;;;;;;;-0.15;81.67;98936.34;5009881;28;20044;-70
2024/01/13 08:05:36;;;;;;;39.50;25.40;;;;;;;-0.25;82.76;98934.78;5029131;28;20048;-71
2024/01/13 08:08:01;;;;;;;32.20;25.73;;;;;;;-0.17;82.76;98930.38;5024378;28;20037;-75
2024/01/13 08:10:27;;;;;;;15.70;11.65;;;;;;;-0.26;81.56;98919.91;5004145;28;20026;-75
2024/01/13 08:12:52;;;;;;;20.35;17.15;;;;;;;-0.26;82.16;98915.44;5024650;28;20464;-76
2024/01/13 08:15:18;;;;;;;26.10;21.92;;;;;;;-0.15;81.55;98928.41;5023898;28;20095;-68
2024/01/13 08:17:43;;;;;;;16.67;13.85;;;;;;;-0.15;81.50;98928.41;5020159;28;20033;-72
2024/01/13 08:20:09;;;;;;;21.08;17.25;;;;;;;-0.23;81.86;98912.47;5014054;28;20075;-72
2024/01/13 08:22:34;;;;;;;23.17;17.77;;;;;;;-0.15;81.63;98938.97;5012795;28;20409;-72
2024/01/13 08:25:00;;;;;;;25.45;20.08;;;;;;;-0.18;81.86;98931.34;5028479;28;20021;-72
2024/01/13 08:27:26;;;;;;;28.00;22.58;;;;;;;-0.14;81.63;98924.75;5013043;28;20115;-71
2024/01/13 08:29:51;;;;;;;30.17;26.10;;;;;;;-0.05;81.66;98934.38;5025190;28;20431;-71
2024/01/13 08:32:16;;;;;;;22.00;17.67;;;;;;;-0.05;81.16;98926.44;5026269;28;20085;-72
2024/01/13 08:34:42;;;;;;;17.40;11.93;;;;;;;-0.18;81.90;98918.13;5006822;28;20014;-71
2024/01/13 08:37:07;;;;;;;18.75;15.27;;;;;;;-0.08;81.46;98908.25;5022417;28;20527;-71
2024/01/13 08:39:33;;;;;;;22.70;20.38;;;;;;;-0.10;81.31;98915.53;5027468;28;20048;-72
2024/01/13 08:41:59;;;;;;;16.80;13.50;;;;;;;-0.11;81.46;98908.56;4994601;28;20487;-72
2024/01/13 08:44:24;;;;;;;19.52;16.67;;;;;;;-0.11;82.17;98920.94;5021606;28;20053;-71
2024/01/13 08:46:49;;;;;;;18.05;13.43;;;;;;;-0.08;82.06;98916.19;5020112;28;20046;-71
2024/01/13 08:49:15;;;;;;;15.18;12.88;;;;;;;-0.10;81.15;98912.88;5023840;28;20026;-72
2024/01/13 08:51:40;;;;;;;13.80;11.45;;;;;;;-0.22;81.41;98911.50;5021195;28;20064;-72
2024/01/13 08:54:06;;;;;;;15.02;11.63;;;;;;;-0.17;82.04;98925.09;5023823;28;20022;-72
2024/01/13 08:56:34;;;;;;;16.42;12.90;;;;;;;-0.21;81.35;98907.84;5023186;28;20546;-70
2024/01/13 08:59:00;;;;;;;15.55;12.75;;;;;;;-0.12;81.63;98891.00;5029730;28;20397;-71
2024/01/13 09:01:25;;;;;;;16.73;13.27;;;;;;;-0.01;81.52;98916.38;5009499;28;20030;-72
2024/01/13 09:03:50;;;;;;;16.58;13.25;;;;;;;-0.02;81.42;98907.59;5010692;28;20156;-71
2024/01/13 09:06:16;;;;;;;16.00;13.30;;;;;;;0.02;80.43;98912.56;5016638;28;20406;-71
2024/01/13 09:08:41;;;;;;;14.77;12.00;;;;;;;-0.06;80.73;98890.38;5023950;28;20444;-71
2024/01/13 09:11:07;;;;;;;16.70;12.88;;;;;;;-0.06;81.30;98906.25;5017894;28;20037;-72
2024/01/13 09:13:32;;;;;;;17.70;13.63;;;;;;;-0.04;80.60;98909.56;5027962;28;20091;-71
2024/01/13 09:15:58;;;;;;;15.93;13.20;;;;;;;0.02;81.30;98891.41;5023065;28;20044;-71
2024/01/13 09:18:24;;;;;;;30.10;22.80;;;;;;;0.09;81.48;98903.00;5025005;28;20082;-71
2024/01/13 09:20:49;;;;;;;28.92;17.02;;;;;;;-0.17;81.80;98901.25;5001230;28;20042;-71
2024/01/13 09:23:14;;;;;;;16.92;12.70;;;;;;;-0.10;81.04;98886.41;5024844;28;20091;-70
2024/01/13 09:25:40;;;;;;;28.73;19.70;;;;;;;-0.01;81.34;98900.47;5019846;28;20388;-71
2024/01/13 09:28:05;;;;;;;28.65;19.85;;;;;;;0.08;80.76;98902.16;5021642;28;20081;-71
2024/01/13 09:30:31;;;;;;;21.08;15.30;;;;;;;0.07;81.14;98904.97;5025931;28;20165;-71
2024/01/13 09:32:57;;;;;;;37.63;21.65;;;;;;;-0.27;81.43;98850.28;5030507;28;20021;-71
2024/01/13 09:35:22;;;;;;;18.25;14.00;;;;;;;0.03;80.74;98903.63;5018755;28;20105;-71
2024/01/13 09:37:48;;;;;;;28.90;21.58;;;;;;;-0.03;81.17;98873.34;5028029;28;20525;-72
2024/01/13 09:40:15;;;;;;;17.45;13.60;;;;;;;0.10;81.00;98907.28;4998734;28;20038;-72
2024/01/13 09:43:00;;;;;;;16.67;13.52;;;;;;;-0.03;80.72;98894.53;5008557;28;20547;-72
2024/01/13 09:45:27;;;;;;;21.23;14.63;;;;;;;0.06;81.03;98887.44;5023614;28;20049;-72
2024/01/13 09:47:54;;;;;;;18.98;14.43;;;;;;;0.07;81.13;98878.50;5005080;28;20116;-71
2024/01/13 09:50:19;;;;;;;18.58;13.75;;;;;;;0.05;81.01;98872.56;5004052;28;20563;-72
2024/01/13 09:52:46;;;;;;;21.02;16.75;;;;;;;-0.01;80.89;98840.44;5021725;28;20109;-71
2024/01/13 09:55:14;;;;;;;23.15;19.65;;;;;;;0.03;81.46;98840.09;5019708;28;20477;-71
2024/01/13 09:57:40;;;;;;;16.70;14.02;;;;;;;0.11;80.98;98850.72;5020592;28;20047;-70
2024/01/13 10:00:07;;;;;;;18.20;14.80;;;;;;;0.11;81.78;98850.72;5021678;28;20037;-72
2024/01/13 10:02:32;;;;;;;19.52;14.52;;;;;;;0.10;81.30;98862.28;5014689;28;20368;-72
2024/01/13 10:04:57;;;;;;;19.48;15.32;;;;;;;0.12;80.92;98865.63;5013640;28;20090;-71
2024/01/13 10:07:23;;;;;;;19.20;14.88;;;;;;;0.08;81.58;98853.66;5020893;28;20104;-72
2024/01/13 10:09:49;;;;;;;16.77;14.05;;;;;;;0.08;80.98;98858.97;5019229;28;20043;-71
2024/01/13 10:12:14;;;;;;;18.85;14.68;;;;;;;0.10;81.13;98862.28;4998089;28;20029;-71
2024/01/13 10:14:42;;;;;;;18.48;14.77;;;;;;;0.14;81.34;98842.44;5005525;28;20044;-71
2024/01/13 10:17:08;;;;;;;18.02;13.98;;;;;;;0.10;81.76;98847.22;5007032;28;20507;-72
2024/01/13 10:19:42;;;;;;;17.35;13.57;;;;;;;0.09;80.96;98831.50;5017033;28;20062;-71
2024/01/13 10:22:08;;;;;;;17.40;13.80;;;;;;;0.14;81.73;98824.72;5014297;28;20079;-71
2024/01/13 10:24:34;;;;;;;19.83;15.43;;;;;;;0.12;81.16;98807.38;5013835;28;20482;-73
2024/01/13 10:27:01;;;;;;;22.35;19.42;;;;;;;0.14;81.17;98784.19;5016975;28;20084;-71
2024/01/13 10:29:28;;;;;;;27.45;24.55;;;;;;;0.26;81.49;98788.16;5021493;28;20034;-73
2024/01/13 10:31:54;;;;;;;21.58;18.33;;;;;;;0.20;81.43;98775.59;5022476;28;20112;-71
2024/01/13 10:34:19;;;;;;;21.52;18.15;;;;;;;0.36;81.24;98778.22;4996964;28;20560;-71
2024/01/13 10:36:45;;;;;;;20.90;16.58;;;;;;;0.31;81.41;98769.94;5023715;28;20041;-72
2024/01/13 10:39:10;;;;;;;21.30;17.45;;;;;;;0.30;80.88;98757.72;5013569;28;20036;-72
2024/01/13 10:41:38;;;;;;;20.65;15.70;;;;;;;0.27;80.69;98732.38;5021955;28;20084;-72
2024/01/13 10:44:07;;;;;;;18.83;14.98;;;;;;;0.39;80.62;98743.47;5007010;28;20112;-72
2024/01/13 10:46:33;;;;;;;17.98;14.07;;;;;;;0.38;80.45;98755.06;5017145;28;20088;-72
2024/01/13 10:49:11;;;;;;;17.95;14.52;;;;;;;0.26;81.28;98778.41;4986175;28;20022;-72
2024/01/13 10:51:42;;;;;;;18.90;14.90;;;;;;;0.27;80.50;98805.72;5030287;28;20060;-72
2024/01/13 10:54:08;;;;;;;18.10;14.07;;;;;;;0.27;80.66;98811.00;5017976;28;20034;-73
2024/01/13 10:56:35;;;;;;;17.17;14.60;;;;;;;0.27;81.66;98811.84;5001060;28;20032;-72
2024/01/13 10:59:02;;;;;;;19.60;15.25;;;;;;;0.18;81.34;98806.69;5030641;28;20045;-72
2024/01/13 11:01:27;;;;;;;19.58;15.38;;;;;;;0.15;81.30;98793.78;5024669;28;20033;-72
2024/01/13 11:03:53;;;;;;;18.70;14.80;;;;;;;0.16;81.33;98780.41;5033405;28;20091;-72
2024/01/13 11:06:19;;;;;;;20.70;15.38;;;;;;;0.13;81.24;98774.59;5018428;28;20049;-72
2024/01/13 11:08:45;;;;;;;19.70;15.35;;;;;;;0.15;81.53;98760.19;5029294;28;20132;-72
2024/01/13 11:11:12;;;;;;;19.45;15.93;;;;;;;0.17;80.73;98730.88;5008878;28;20565;-72